ADDS METAR Data INFO
IDs: Format: Raw Decoded Include TAF

Data at: 0115 UTC 21 Oct 2017

KFYM 210055Z AUTO 00000KT 10SM CLR 15/11 A3019 RMK A01
KFYM 210035Z AUTO 00000KT 10SM CLR 16/10 A3018 RMK A01
KFYM 210015Z AUTO 00000KT 10SM CLR 17/12 A3019 RMK A01
KFYM 202355Z AUTO 00000KT 10SM CLR 17/12 A3018 RMK A01
KFYM 202335Z AUTO 00000KT 10SM CLR 18/12 A3018 RMK A01
KFYM 202315Z AUTO 00000KT 10SM SCT023 19/11 A3018 RMK A01
KFYM 202255Z AUTO 00000KT 10SM FEW025 SCT031 20/11 A3018 RMK A01
KFYM 202235Z AUTO 17003KT 10SM CLR 22/11 A3017 RMK A01
KFYM 202215Z AUTO 00000KT 10SM CLR 23/11 A3017 RMK A01
KFYM 202155Z AUTO 00000KT 10SM CLR 23/09 A3017 RMK A01
KFYM 202135Z AUTO 00000KT 9SM CLR 24/05 A3017 RMK A01
KFYM 202115Z AUTO 00000KT 8SM CLR 24/05 A3017 RMK A01
KFYM 202055Z AUTO 00000KT 10SM CLR 24/05 A3017 RMK A01
KFYM 202035Z AUTO 00000KT 10SM CLR 24/05 A3018 RMK A01
KFYM 202015Z AUTO 10005KT 10SM CLR 24/05 A3018 RMK A01
KFYM 201955Z AUTO VRB03KT 10SM CLR 24/05 A3019 RMK A01
KFYM 201935Z AUTO 09004KT 10SM CLR 24/06 A3019 RMK A01
KFYM 201915Z AUTO 06004KT 3SM HZ CLR 24/06 A3020 RMK A01
KFYM 201855Z AUTO 00000KT 10SM CLR 23/05 A3021 RMK A01
KFYM 201835Z AUTO 07004KT 10SM CLR 23/06 A3023 RMK A01
KFYM 201815Z AUTO VRB04KT 10SM CLR 23/06 A3024 RMK A01
KFYM 201755Z AUTO 00000KT 9SM CLR 23/07 A3025 RMK A01
KFYM 201735Z AUTO 02005KT 9SM CLR 22/08 A3025 RMK A01
KFYM 201715Z AUTO VRB05KT 10SM CLR 22/08 A3027 RMK A01
KFYM 201655Z AUTO VRB05KT 10SM CLR 21/08 A3028 RMK A01
KFYM 201635Z AUTO 08006KT 10SM CLR 21/09 A3029 RMK A01
KFYM 201615Z AUTO 04005KT 10SM CLR 20/10 A3029 RMK A01
KFYM 201555Z AUTO 04004KT 10SM CLR 19/10 A3030 RMK A01
KFYM 201535Z AUTO VRB03KT 10SM CLR 19/10 A3030 RMK A01
KFYM 201515Z AUTO 04005KT 10SM CLR 18/10 A3030 RMK A01
KFYM 201455Z AUTO 04005KT 10SM CLR 17/11 A3030 RMK A01
KFYM 201435Z AUTO 00000KT 10SM CLR 16/10 A3031 RMK A01
KFYM 201415Z AUTO 06003KT 10SM CLR 15/10 A3030 RMK A01
KFYM 201355Z AUTO 00000KT 10SM CLR 13/10 A3031 RMK A01
KFYM 201335Z AUTO 00000KT CLR 12/10 A3031 RMK A01
KFYM 201315Z AUTO 00000KT 10SM CLR 11/10 A3031 RMK A01
KFYM 201255Z AUTO 00000KT 10SM CLR 09/09 A3030 RMK A01
KFYM 201235Z AUTO 00000KT 10SM CLR 07/07 A3029 RMK A01
KFYM 201215Z AUTO 00000KT 9SM CLR 06/06 A3030 RMK A01
KFYM 201155Z AUTO 00000KT 10SM CLR 07/07 A3029 RMK A01
KFYM 201135Z AUTO 00000KT 10SM CLR 07/07 A3028 RMK A01
KFYM 201115Z AUTO 00000KT 10SM CLR 07/07 A3028 RMK A01
KFYM 201055Z AUTO 00000KT 10SM CLR 07/07 A3028 RMK A01
KFYM 201035Z AUTO 00000KT 10SM CLR 07/07 A3027 RMK A01
KFYM 201015Z AUTO 00000KT 10SM CLR 07/07 A3027 RMK A01
KFYM 200955Z AUTO 00000KT 10SM CLR 08/07 A3027 RMK A01
KFYM 200935Z AUTO 00000KT 10SM CLR 08/07 A3026 RMK A01
KFYM 200915Z AUTO 00000KT 08/08 A3025 RMK A01
KFYM 200855Z AUTO 00000KT 10SM CLR 08/08 A3025 RMK A01
KFYM 200835Z AUTO 00000KT 10SM CLR 08/08 A3025 RMK A01
KFYM 200815Z AUTO 00000KT 10SM CLR 08/08 A3025 RMK A01
KFYM 200755Z AUTO 00000KT 10SM CLR 08/08 A3025 RMK A01
KFYM 200735Z AUTO 03004KT 10SM CLR 08/08 A3025 RMK A01
KFYM 200715Z AUTO 00000KT 10SM CLR 09/09 A3025 RMK A01
KFYM 200655Z AUTO 00000KT 10SM CLR 09/08 A3025 RMK A01
KFYM 200635Z AUTO 00000KT 10SM CLR 10/09 A3024 RMK A01
KFYM 200615Z AUTO 00000KT 10SM CLR 10/09 A3025 RMK A01
KFYM 200555Z AUTO 00000KT 10SM CLR 10/08 A3024 RMK A01
KFYM 200535Z AUTO 00000KT 10SM CLR 11/09 A3024 RMK A01
KFYM 200515Z AUTO 00000KT 10SM CLR 11/09 A3024 RMK A01
KFYM 200455Z AUTO 00000KT 10SM CLR 11/09 A3025 RMK A01
KFYM 200435Z AUTO 00000KT 10SM CLR 11/08 A3025 RMK A01
KFYM 200415Z AUTO 00000KT 10SM CLR 11/08 A3025 RMK A01
KFYM 200355Z AUTO 00000KT 10SM CLR 12/09 A3025 RMK A01
KFYM 200335Z AUTO 00000KT 10SM CLR 11/08 A3025 RMK A01
KFYM 200315Z AUTO 00000KT 10SM CLR 12/09 A3025 RMK A01
KFYM 200255Z AUTO 00000KT 10SM CLR 12/09 A3025 RMK A01
KFYM 200235Z AUTO 00000KT 10SM CLR 12/09 A3024 RMK A01
KFYM 200215Z AUTO 00000KT 10SM CLR 12/09 A3025 RMK A01
KFYM 200155Z AUTO 00000KT 10SM CLR 13/08 A3025 RMK A01
KFYM 200135Z AUTO 00000KT 10SM CLR 14/08 A3025 RMK A01
KFYM 200115Z AUTO 00000KT 10SM CLR 14/08 A3025 RMK A01
KFYM 200055Z AUTO 00000KT 10SM CLR 14/08 A3025 RMK A01
KFYM 200035Z AUTO 11004KT 10SM CLR 14/08 A3025 RMK A01
KFYM 200015Z AUTO 00000KT 10SM CLR 16/08 A3025 RMK A01
KFYM 192355Z AUTO 00000KT 10SM CLR 16/09 A3024 RMK A01
KFYM 192335Z AUTO 00000KT 10SM CLR 17/09 A3024 RMK A01
KFYM 192315Z AUTO 00000KT 10SM CLR 18/08 A3024 RMK A01
KFYM 192255Z AUTO 00000KT 10SM CLR 20/08 A3023 RMK A01
KFYM 192235Z AUTO 00000KT 10SM CLR 21/06 A3023 RMK A01
KFYM 192215Z AUTO 00000KT 10SM CLR 22/05 A3023 RMK A01
KFYM 192155Z AUTO 09003KT 10SM CLR 22/05 A3023 RMK A01
KFYM 192135Z AUTO 00000KT 10SM CLR 23/05 A3023 RMK A01
KFYM 192115Z AUTO 00000KT 10SM CLR 23/05 A3023 RMK A01
KFYM 192055Z AUTO 00000KT 10SM CLR 23/06 A3024 RMK A01
KFYM 192035Z AUTO 00000KT 10SM CLR 23/07 A3024 RMK A01
KFYM 192015Z AUTO 00000KT 10SM CLR 23/08 A3024 RMK A01
KFYM 191955Z AUTO 00000KT 4SM HZ CLR 23/07 A3025 RMK A01
KFYM 191935Z AUTO 21005KT 2 1/2SM HZ CLR 23/07 A3025 RMK A01
KFYM 191915Z AUTO VRB03KT 10SM CLR 22/07 A3025 RMK A01
KFYM 191855Z AUTO 00000KT 9SM CLR 22/06 A3026 RMK A01
KFYM 191835Z AUTO 00000KT 10SM CLR 22/07 A3026 RMK A01
KFYM 191815Z AUTO 00000KT 10SM CLR 21/07 A3028 RMK A01
KFYM 191755Z AUTO 00000KT 10SM CLR 21/07 A3029 RMK A01
KFYM 191735Z AUTO 00000KT 10SM CLR 21/07 A3029 RMK A01
KFYM 191715Z AUTO 00000KT 10SM CLR 21/08 A3030 RMK A01
KFYM 191655Z AUTO 00000KT 10SM CLR 20/07 A3031 RMK A01
KFYM 191635Z AUTO 00000G10KT 10SM CLR 20/08 A3032 RMK A01
KFYM 191615Z AUTO 17004KT 10SM CLR 19/07 A3032 RMK A01
KFYM 191555Z AUTO VRB04KT 10SM CLR 19/08 A3033 RMK A01
KFYM 191535Z AUTO 20005KT 10SM CLR 18/08 A3033 RMK A01
KFYM 191515Z AUTO 18006KT 10SM CLR 17/08 A3033 RMK A01
KFYM 191455Z AUTO 18007KT 10SM CLR 16/08 A3033 RMK A01
KFYM 191435Z AUTO 15005KT 10SM CLR 15/09 A3033 RMK A01
KFYM 191415Z AUTO 14005KT 10SM CLR 14/09 A3032 RMK A01
KFYM 191355Z AUTO 15005KT 10SM CLR 14/09 A3032 RMK A01
KFYM 191335Z AUTO 14003KT 10SM CLR 13/09 A3032 RMK A01